Terminal Aerodrome Forecast
Issued by NWS Raleigh/Durham, NC

Home | Current Version | Previous Version | Text Only | Print | Product List | Glossary On
Versions: 1 2 3 4 5 6 7 8 9 10 11 12 13 14 15 16 17 18 19 20 21 22 23 24 25 26 27 28 29 30 31 32 33 34 35 36 37 38 39 40 41 42
873
FTUS42 KRAH 020858 AAA
TAFFAY
TAF AMD
KFAY 020858Z 0209/0306 20007KT P6SM SCT006 SCT060 BKN120
      TEMPO 0209/0212 BKN006
     FM021400 21008KT P6SM VCSH BKN015
     FM021600 23011KT P6SM FEW035 PROB30 0220/0224 27015G30KT -TSRA
      SCT020 BKN045CB OVC120=

USA.gov is the U.S. government's official web portal to all federal, state and local government web resources and services.